createdAt,value
2022-11-29T00:01:41.670Z,3.65
2022-11-29T00:04:10.858Z,2.92
2022-11-29T00:06:39.146Z,3.58
2022-11-29T00:09:11.539Z,3.25
2022-11-29T00:11:59.691Z,4.22
2022-11-29T00:14:28.569Z,3.22
2022-11-29T00:17:01.929Z,3.50
2022-11-29T00:19:32.677Z,3.62
2022-11-29T00:22:01.943Z,2.92
2022-11-29T00:24:32.461Z,3.58
2022-11-29T00:27:01.569Z,4.05
2022-11-29T00:29:30.542Z,3.67
2022-11-29T00:31:59.165Z,2.85
2022-11-29T00:34:27.960Z,3.95
2022-11-29T00:36:58.833Z,3.42
2022-11-29T00:39:27.295Z,4.53
2022-11-29T00:41:55.743Z,2.40
2022-11-29T00:44:23.889Z,2.87
2022-11-29T00:46:52.023Z,3.87
2022-11-29T00:49:20.613Z,3.67
2022-11-29T00:51:50.987Z,3.87
2022-11-29T00:54:19.132Z,3.87
2022-11-29T00:56:47.589Z,4.25
2022-11-29T00:59:15.583Z,3.05
2022-11-29T01:01:43.917Z,3.10
2022-11-29T01:04:12.893Z,2.60
2022-11-29T01:06:41.030Z,2.58
2022-11-29T01:09:09.161Z,3.75
2022-11-29T01:11:38.158Z,3.90
2022-11-29T01:14:06.481Z,4.00
2022-11-29T01:16:35.126Z,3.08
2022-11-29T01:19:04.575Z,3.15
2022-11-29T01:21:33.424Z,2.37
2022-11-29T01:24:01.876Z,3.03
2022-11-29T01:26:31.967Z,2.40
2022-11-29T01:29:00.358Z,2.58
2022-11-29T01:31:36.358Z,2.05
2022-11-29T01:34:06.653Z,3.45
2022-11-29T01:36:35.326Z,2.75
2022-11-29T01:39:06.001Z,3.12
2022-11-29T01:41:37.423Z,3.53
2022-11-29T01:44:14.247Z,2.80
2022-11-29T01:46:44.941Z,2.90
2022-11-29T01:49:35.997Z,3.85
2022-11-29T01:52:09.230Z,2.92
2022-11-29T01:54:43.977Z,2.10
2022-11-29T01:57:13.099Z,2.75
2022-11-29T01:59:44.968Z,3.75
2022-11-29T02:02:31.070Z,2.60
2022-11-29T02:05:01.951Z,2.83
2022-11-29T02:07:30.160Z,2.67
2022-11-29T02:09:58.427Z,3.40
2022-11-29T02:12:26.737Z,3.28
2022-11-29T02:15:09.972Z,3.03
2022-11-29T02:17:53.540Z,2.67
2022-11-29T02:20:53.341Z,2.20
2022-11-29T02:23:39.509Z,3.85
2022-11-29T02:26:35.777Z,2.28
2022-11-29T02:29:04.598Z,2.78
2022-11-29T02:31:54.258Z,2.15
2022-11-29T02:34:32.832Z,2.85
2022-11-29T02:37:36.370Z,2.33
2022-11-29T02:40:13.662Z,2.25
2022-11-29T02:43:09.921Z,2.53
2022-11-29T02:45:44.942Z,2.62
2022-11-29T02:48:22.297Z,2.67
2022-11-29T02:51:18.751Z,1.55
2022-11-29T02:56:59.297Z,1.95
2022-11-29T02:59:59.769Z,2.33
2022-11-29T03:02:48.293Z,1.62
2022-11-29T03:05:45.197Z,3.53
2022-11-29T03:08:43.143Z,2.40
2022-11-29T03:11:14.059Z,3.65
2022-11-29T03:14:03.416Z,4.78
2022-11-29T03:16:46.313Z,2.58
2022-11-29T03:19:23.941Z,3.15
2022-11-29T03:22:24.852Z,1.62
2022-11-29T03:25:07.292Z,1.75
2022-11-29T03:27:43.783Z,2.20
2022-11-29T03:30:18.372Z,2.20
2022-11-29T03:32:52.257Z,2.58
2022-11-29T03:35:54.527Z,2.83
2022-11-29T03:38:32.924Z,2.40
2022-11-29T03:41:10.327Z,2.67
2022-11-29T03:44:04.063Z,1.80
2022-11-29T03:46:42.538Z,3.33
2022-11-29T03:49:28.666Z,2.50
2022-11-29T03:52:18.833Z,2.12
2022-11-29T03:54:53.037Z,2.53
2022-11-29T03:57:34.364Z,2.72
2022-11-29T04:00:13.115Z,2.83
2022-11-29T04:03:16.682Z,2.70
2022-11-29T04:06:17.352Z,3.25
2022-11-29T04:08:48.737Z,2.30
2022-11-29T04:11:55.038Z,1.77
2022-11-29T04:15:01.462Z,2.35
2022-11-29T04:17:51.864Z,1.83
2022-11-29T04:20:23.428Z,2.33
2022-11-29T04:23:03.649Z,2.72
2022-11-29T04:25:56.944Z,2.25
2022-11-29T04:28:49.969Z,2.53
2022-11-29T04:31:46.559Z,1.62
2022-11-29T04:34:20.438Z,2.05
2022-11-29T04:37:39.544Z,4.13
2022-11-29T04:40:36.678Z,1.60
2022-11-29T04:43:25.511Z,1.30
2022-11-29T04:45:56.322Z,1.35
2022-11-29T04:48:27.343Z,4.05
2022-11-29T04:51:27.795Z,2.30
2022-11-29T04:54:31.353Z,1.37
2022-11-29T04:57:06.292Z,0.90
2022-11-29T04:59:44.544Z,2.17
2022-11-29T05:02:14.218Z,1.23
2022-11-29T05:04:53.593Z,2.80
2022-11-29T05:07:43.196Z,2.83
2022-11-29T05:10:39.609Z,1.48
2022-11-29T05:13:53.194Z,1.58
2022-11-29T05:16:46.900Z,2.40
2022-11-29T05:19:26.056Z,2.25
2022-11-29T05:22:12.536Z,1.42
2022-11-29T05:24:40.603Z,2.45
2022-11-29T05:27:24.274Z,1.62
2022-11-29T05:30:04.358Z,2.47
2022-11-29T05:32:38.355Z,1.70
2022-11-29T05:35:27.672Z,2.62
2022-11-29T05:38:39.187Z,1.87
2022-11-29T05:41:48.136Z,2.72
2022-11-29T05:44:25.539Z,1.52
2022-11-29T05:47:01.228Z,1.85
2022-11-29T05:49:51.622Z,2.50
2022-11-29T05:52:39.233Z,2.12
2022-11-29T05:55:13.961Z,3.30
2022-11-29T05:58:04.538Z,2.08
2022-11-29T06:00:49.032Z,2.22
2022-11-29T06:03:30.556Z,2.75
2022-11-29T06:06:40.481Z,1.65
2022-11-29T06:09:23.147Z,1.90
2022-11-29T06:11:57.842Z,2.30
2022-11-29T06:17:55.300Z,2.03
2022-11-29T06:20:35.099Z,2.17
2022-11-29T06:23:24.951Z,1.42
2022-11-29T06:26:18.202Z,2.10
2022-11-29T06:29:02.270Z,3.65
2022-11-29T06:31:43.406Z,2.62
2022-11-29T06:34:17.535Z,3.83
2022-11-29T06:36:53.771Z,2.55
2022-11-29T06:39:22.289Z,2.97
2022-11-29T06:41:50.781Z,3.10
2022-11-29T06:44:19.058Z,3.05
2022-11-29T06:47:09.310Z,2.55
2022-11-29T06:49:57.895Z,2.92
2022-11-29T06:52:59.908Z,2.70
2022-11-29T06:55:39.918Z,3.28
2022-11-29T06:58:36.029Z,3.45
2022-11-29T07:01:15.179Z,3.97
2022-11-29T07:03:43.385Z,4.43
2022-11-29T07:06:18.587Z,3.17
2022-11-29T07:11:16.524Z,1.80
2022-11-29T07:13:44.936Z,2.97
2022-11-29T07:16:36.655Z,4.10
2022-11-29T07:19:59.115Z,2.47
2022-11-29T07:22:52.856Z,2.75
2022-11-29T07:25:30.184Z,3.00
2022-11-29T07:28:16.411Z,4.10
2022-11-29T07:31:07.531Z,3.03
2022-11-29T07:33:44.166Z,3.25
2022-11-29T07:36:18.379Z,3.12
2022-11-29T07:39:01.581Z,2.53
2022-11-29T07:41:54.873Z,3.30
2022-11-29T07:44:41.870Z,2.97
2022-11-29T07:47:10.266Z,4.20
2022-11-29T07:49:38.297Z,2.55
2022-11-29T07:52:06.888Z,2.72
2022-11-29T07:54:35.188Z,3.15
2022-11-29T07:57:03.397Z,3.03
2022-11-29T07:59:31.821Z,2.45
2022-11-29T08:02:00.219Z,3.78
2022-11-29T08:04:28.538Z,2.90
2022-11-29T08:07:00.247Z,2.78
2022-11-29T08:09:28.560Z,2.95
2022-11-29T08:11:57.243Z,2.83
2022-11-29T08:14:25.569Z,3.25
2022-11-29T08:16:53.974Z,1.65
2022-11-29T08:19:21.965Z,1.70
2022-11-29T08:21:51.597Z,2.12
2022-11-29T08:24:20.218Z,2.33
2022-11-29T08:26:48.426Z,2.53
2022-11-29T08:29:16.715Z,3.60
2022-11-29T08:31:45.493Z,3.03
2022-11-29T08:34:13.505Z,2.12
2022-11-29T08:36:41.563Z,2.62
2022-11-29T08:39:09.924Z,2.85
2022-11-29T08:41:38.252Z,3.90
2022-11-29T08:44:06.842Z,3.60
2022-11-29T08:46:54.358Z,3.35
2022-11-29T08:49:22.535Z,3.62
2022-11-29T08:52:16.966Z,3.12
2022-11-29T08:54:45.469Z,2.97
2022-11-29T08:57:39.370Z,2.95
2022-11-29T09:00:02.485Z,3.22
2022-11-29T09:02:30.979Z,2.83
2022-11-29T09:04:58.985Z,2.78
2022-11-29T09:07:27.073Z,2.80
2022-11-29T09:09:55.571Z,2.42
2022-11-29T09:12:23.616Z,2.25
2022-11-29T09:14:51.820Z,3.95
2022-11-29T09:17:20.096Z,3.12
2022-11-29T09:19:48.411Z,2.85
2022-11-29T09:22:17.035Z,4.82
2022-11-29T09:24:47.160Z,2.22
2022-11-29T09:27:15.885Z,3.15
2022-11-29T09:29:44.420Z,2.42
2022-11-29T09:32:12.743Z,3.05
2022-11-29T09:34:42.412Z,3.08
2022-11-29T09:37:10.792Z,3.87
2022-11-29T09:39:40.303Z,4.68
2022-11-29T09:42:24.073Z,2.08
2022-11-29T09:45:27.452Z,1.92
2022-11-29T09:48:14.534Z,3.08
2022-11-29T09:50:54.071Z,2.72
2022-11-29T09:53:33.023Z,3.30
2022-11-29T09:56:18.515Z,2.90
2022-11-29T09:59:00.441Z,2.85
2022-11-29T10:01:33.407Z,2.53
2022-11-29T10:04:06.600Z,2.97
2022-11-29T10:06:40.834Z,2.85
2022-11-29T10:09:33.372Z,2.62
2022-11-29T10:12:07.565Z,1.83
2022-11-29T10:14:57.183Z,3.72
2022-11-29T10:17:33.883Z,1.42
2022-11-29T10:20:17.202Z,2.35
2022-11-29T10:22:59.449Z,2.40
2022-11-29T10:25:42.403Z,2.60
2022-11-29T10:28:16.326Z,2.20
2022-11-29T10:30:45.188Z,2.15
2022-11-29T10:33:25.483Z,2.78
2022-11-29T10:35:59.340Z,2.20
2022-11-29T10:38:31.654Z,2.20
2022-11-29T10:41:10.211Z,2.33
2022-11-29T10:43:38.656Z,3.08
2022-11-29T10:46:15.464Z,2.22
2022-11-29T10:48:43.662Z,2.12
2022-11-29T10:51:17.659Z,2.78
2022-11-29T10:53:46.663Z,2.28
2022-11-29T10:56:29.811Z,2.25
2022-11-29T10:59:05.162Z,3.65
2022-11-29T11:01:43.322Z,2.30
2022-11-29T11:04:33.984Z,2.70
2022-11-29T11:07:05.270Z,2.70
2022-11-29T11:09:35.688Z,2.70
2022-11-29T11:12:19.220Z,2.92
2022-11-29T11:14:47.685Z,2.72
2022-11-29T11:17:33.030Z,2.90
2022-11-29T11:20:22.826Z,2.87
2022-11-29T11:23:27.681Z,2.85
2022-11-29T11:26:02.257Z,3.00
2022-11-29T11:28:36.325Z,3.15
2022-11-29T11:31:08.450Z,3.55
2022-11-29T11:33:44.710Z,2.80
2022-11-29T11:36:14.192Z,3.17
2022-11-29T11:38:55.199Z,2.70
2022-11-29T11:41:52.037Z,2.72
2022-11-29T11:44:48.461Z,3.30
2022-11-29T11:47:27.322Z,2.75
2022-11-29T11:50:02.409Z,2.33
2022-11-29T11:52:39.869Z,3.58
2022-11-29T11:55:21.265Z,3.20
2022-11-29T11:58:03.384Z,2.92
2022-11-29T12:03:57.611Z,4.72
2022-11-29T12:06:25.842Z,2.53
2022-11-29T12:09:02.377Z,3.30
2022-11-29T12:11:51.274Z,2.70
2022-11-29T12:14:49.059Z,2.40
2022-11-29T12:17:29.875Z,2.25
2022-11-29T12:20:22.512Z,3.05
2022-11-29T12:22:53.531Z,2.55
2022-11-29T12:25:27.229Z,3.53
2022-11-29T12:27:55.520Z,2.55
2022-11-29T12:30:24.105Z,2.85
2022-11-29T12:33:04.049Z,2.75
2022-11-29T12:35:58.747Z,2.90
2022-11-29T12:39:02.361Z,3.22
2022-11-29T12:42:05.679Z,3.22
2022-11-29T12:45:01.369Z,2.97
2022-11-29T12:47:52.269Z,3.58
2022-11-29T12:50:20.460Z,3.83
2022-11-29T12:53:09.990Z,3.12
2022-11-29T12:55:47.103Z,4.18
2022-11-29T12:58:33.024Z,4.50
2022-11-29T13:01:20.426Z,2.90
2022-11-29T13:04:03.461Z,3.67
2022-11-29T13:07:03.700Z,3.33
2022-11-29T13:10:11.458Z,4.30
2022-11-29T13:12:47.214Z,3.35
2022-11-29T13:15:20.912Z,3.65
2022-11-29T13:18:02.721Z,4.28
2022-11-29T13:20:38.708Z,2.62
2022-11-29T13:23:16.327Z,3.35
2022-11-29T13:25:50.873Z,3.72
2022-11-29T13:28:28.323Z,5.05
2022-11-29T13:31:09.565Z,2.75
2022-11-29T13:33:59.098Z,3.65
2022-11-29T13:37:21.410Z,3.05
2022-11-29T13:40:01.190Z,3.30
2022-11-29T13:42:59.954Z,2.75
2022-11-29T13:45:48.462Z,3.47
2022-11-29T13:48:33.889Z,3.83
2022-11-29T13:51:29.496Z,3.28
2022-11-29T13:54:02.229Z,2.67
2022-11-29T13:56:48.005Z,4.43
2022-11-29T13:59:22.488Z,4.00
2022-11-29T14:01:54.272Z,4.47
2022-11-29T14:04:34.537Z,4.47
2022-11-29T14:07:16.732Z,4.72
2022-11-29T14:09:56.912Z,4.90
2022-11-29T14:12:37.253Z,3.58
2022-11-29T14:15:11.300Z,3.95
2022-11-29T14:18:01.333Z,5.22
2022-11-29T14:20:29.838Z,4.85
2022-11-29T14:23:04.379Z,3.53
2022-11-29T14:25:51.204Z,3.58
2022-11-29T14:28:22.000Z,5.03
2022-11-29T14:30:55.424Z,8.20
2022-11-29T14:33:39.124Z,8.65
2022-11-29T14:36:19.340Z,5.18
2022-11-29T14:39:25.542Z,5.65
2022-11-29T14:42:24.118Z,5.50
2022-11-29T14:44:56.156Z,4.15
2022-11-29T14:47:32.948Z,4.30
2022-11-29T14:50:07.570Z,5.53
2022-11-29T14:52:40.699Z,4.90
2022-11-29T14:55:14.830Z,5.35
2022-11-29T14:57:54.722Z,4.55
2022-11-29T15:00:34.890Z,5.68
2022-11-29T15:03:10.177Z,5.75
2022-11-29T15:05:43.036Z,9.15
2022-11-29T15:08:14.980Z,8.77
2022-11-29T15:10:51.920Z,10.30
2022-11-29T15:13:27.567Z,8.07
2022-11-29T15:16:26.401Z,8.32
2022-11-29T15:19:03.685Z,9.00
2022-11-29T15:21:43.885Z,8.65
2022-11-29T15:24:14.873Z,8.40
2022-11-29T15:26:55.787Z,8.98
2022-11-29T15:29:25.480Z,10.95
2022-11-29T15:31:59.259Z,10.13
2022-11-29T15:34:32.480Z,9.07
2022-11-29T15:37:01.176Z,14.95
2022-11-29T15:39:35.564Z,16.40
2022-11-29T15:42:15.501Z,14.95
2022-11-29T15:44:48.612Z,17.08
2022-11-29T15:47:26.790Z,14.48
2022-11-29T15:49:55.571Z,8.10
2022-11-29T15:52:38.369Z,11.40
2022-11-29T15:55:13.905Z,9.93
2022-11-29T15:57:45.908Z,8.15
2022-11-29T16:00:21.608Z,7.97
2022-11-29T16:02:52.662Z,8.60
2022-11-29T16:05:23.538Z,7.72
2022-11-29T16:08:17.376Z,8.43
2022-11-29T16:10:53.057Z,7.70
2022-11-29T16:13:38.832Z,7.82
2022-11-29T16:18:37.706Z,5.62
2022-11-29T16:21:07.381Z,6.80
2022-11-29T16:23:38.185Z,5.60
2022-11-29T16:26:20.684Z,6.87
2022-11-29T16:28:51.750Z,5.65
2022-11-29T16:31:23.331Z,7.75
2022-11-29T16:33:52.628Z,5.90
2022-11-29T16:36:24.265Z,7.93
2022-11-29T16:39:04.538Z,6.32
2022-11-29T16:41:35.270Z,6.65
2022-11-29T16:44:06.116Z,8.05
2022-11-29T16:46:39.733Z,8.23
2022-11-29T16:49:32.136Z,8.93
2022-11-29T16:52:00.957Z,7.62
2022-11-29T16:54:35.541Z,9.38
2022-11-29T16:57:07.066Z,6.55
2022-11-29T16:59:38.522Z,6.82
2022-11-29T17:02:11.584Z,8.43
2022-11-29T17:04:40.690Z,10.68
2022-11-29T17:07:26.815Z,11.55
2022-11-29T17:09:56.542Z,10.75
2022-11-29T17:12:24.645Z,9.20
2022-11-29T17:14:53.274Z,7.47
2022-11-29T17:17:21.821Z,6.35
2022-11-29T17:19:49.869Z,6.70
2022-11-29T17:22:18.234Z,6.65
2022-11-29T17:24:48.524Z,6.35
2022-11-29T17:27:16.815Z,4.87
2022-11-29T17:29:45.032Z,5.60
2022-11-29T17:32:13.774Z,6.18
2022-11-29T17:34:41.971Z,7.72
2022-11-29T17:37:10.270Z,5.55
2022-11-29T17:39:38.765Z,6.80
2022-11-29T17:42:07.088Z,5.62
2022-11-29T17:44:35.781Z,7.45
2022-11-29T17:47:06.645Z,6.93
2022-11-29T17:49:34.774Z,8.88
2022-11-29T17:52:03.481Z,7.05
2022-11-29T17:54:36.061Z,7.80
2022-11-29T17:57:04.602Z,6.55
2022-11-29T17:59:33.108Z,9.70
2022-11-29T18:02:02.253Z,8.00
2022-11-29T18:04:30.986Z,11.27
2022-11-29T18:06:59.134Z,10.20
2022-11-29T18:09:28.326Z,11.82
2022-11-29T18:11:56.717Z,10.20
2022-11-29T18:14:28.392Z,13.82
2022-11-29T18:16:56.922Z,12.82
2022-11-29T18:19:25.891Z,11.48
2022-11-29T18:21:54.051Z,15.43
2022-11-29T18:24:22.495Z,13.90
2022-11-29T18:26:50.830Z,23.90
2022-11-29T18:29:23.509Z,17.00
2022-11-29T18:31:51.890Z,13.77
2022-11-29T18:34:20.102Z,13.00
2022-11-29T18:36:49.520Z,13.32
2022-11-29T18:39:20.355Z,12.27
2022-11-29T18:41:50.009Z,11.30
2022-11-29T18:44:21.852Z,13.23
2022-11-29T18:46:50.053Z,13.23
2022-11-29T18:49:18.780Z,12.40
2022-11-29T18:51:49.180Z,11.05
2022-11-29T18:54:18.503Z,10.45
2022-11-29T18:56:50.224Z,12.57
2022-11-29T18:59:18.461Z,10.38
2022-11-29T19:01:48.397Z,15.80
2022-11-29T19:04:19.599Z,17.70
2022-11-29T19:06:48.649Z,16.05
2022-11-29T19:09:21.378Z,10.30
2022-11-29T19:11:50.989Z,8.30
2022-11-29T19:14:19.591Z,6.10
2022-11-29T19:16:49.886Z,6.45
2022-11-29T19:19:21.372Z,6.20
2022-11-29T19:21:50.400Z,8.15
2022-11-29T19:24:19.384Z,8.65
2022-11-29T19:26:49.735Z,7.65
2022-11-29T19:29:18.009Z,7.62
2022-11-29T19:31:46.435Z,5.97
2022-11-29T19:34:14.868Z,5.62
2022-11-29T19:36:44.156Z,6.00
2022-11-29T19:39:15.757Z,6.07
2022-11-29T19:41:46.659Z,4.60
2022-11-29T19:44:15.154Z,5.50
2022-11-29T19:46:46.881Z,5.12
2022-11-29T19:49:20.447Z,6.55
2022-11-29T19:51:48.901Z,7.97
2022-11-29T19:54:17.572Z,9.02
2022-11-29T19:56:45.926Z,9.27
2022-11-29T19:59:15.005Z,7.93
2022-11-29T20:01:43.897Z,6.62
2022-11-29T20:04:13.626Z,8.07
2022-11-29T20:06:42.391Z,7.90
2022-11-29T20:09:13.724Z,6.30
2022-11-29T20:11:43.418Z,5.43
2022-11-29T20:14:12.319Z,5.65
2022-11-29T20:19:17.780Z,4.10
2022-11-29T20:21:49.005Z,8.40
2022-11-29T20:24:19.557Z,15.07
2022-11-29T20:26:48.696Z,13.50
2022-11-29T20:29:17.564Z,15.27
2022-11-29T20:31:50.785Z,16.17
2022-11-29T20:34:21.061Z,15.10
2022-11-29T20:36:49.600Z,13.02
2022-11-29T20:39:52.436Z,17.27
2022-11-29T20:42:39.938Z,12.40
2022-11-29T20:45:12.211Z,10.63
2022-11-29T20:47:41.134Z,12.48
2022-11-29T20:50:22.978Z,11.25
2022-11-29T20:53:15.104Z,7.32
2022-11-29T20:55:48.095Z,10.60
2022-11-29T20:58:18.267Z,9.95
2022-11-29T21:00:47.287Z,10.85
2022-11-29T21:03:16.491Z,11.98
2022-11-29T21:05:45.359Z,13.13
2022-11-29T21:08:15.347Z,12.85
2022-11-29T21:10:43.590Z,12.50
2022-11-29T21:13:13.394Z,14.45
2022-11-29T21:15:42.751Z,13.18
2022-11-29T21:18:37.153Z,12.93
2022-11-29T21:21:20.546Z,12.82
2022-11-29T21:24:19.099Z,11.73
2022-11-29T21:26:51.590Z,9.35
2022-11-29T21:29:22.199Z,8.73
2022-11-29T21:31:53.210Z,7.75
2022-11-29T21:34:22.037Z,5.85
2022-11-29T21:36:59.097Z,7.82
2022-11-29T21:39:33.751Z,8.13
2022-11-29T21:42:02.816Z,10.32
2022-11-29T21:44:30.887Z,8.38
2022-11-29T21:46:58.949Z,8.85
2022-11-29T21:49:27.564Z,10.77
2022-11-29T21:51:57.669Z,10.90
2022-11-29T21:54:25.960Z,11.32
2022-11-29T21:56:54.735Z,11.57
2022-11-29T21:59:24.875Z,11.57
2022-11-29T22:01:53.032Z,11.40
2022-11-29T22:04:22.088Z,11.70
2022-11-29T22:06:50.178Z,10.57
2022-11-29T22:09:18.261Z,10.25
2022-11-29T22:11:46.841Z,10.65
2022-11-29T22:14:16.246Z,10.70
2022-11-29T22:16:54.156Z,10.52
2022-11-29T22:19:25.093Z,12.18
2022-11-29T22:22:01.201Z,12.52
2022-11-29T22:24:32.186Z,10.38
2022-11-29T22:27:01.615Z,9.25
2022-11-29T22:29:30.857Z,8.70
2022-11-29T22:31:59.615Z,12.35
2022-11-29T22:34:28.227Z,11.88
2022-11-29T22:36:56.621Z,11.40
2022-11-29T22:39:24.961Z,10.65
2022-11-29T22:41:54.942Z,11.70
2022-11-29T22:44:24.786Z,9.73
2022-11-29T22:46:53.176Z,10.07
2022-11-29T22:49:21.443Z,8.23
2022-11-29T22:51:49.843Z,8.75
2022-11-29T22:54:18.370Z,8.88
2022-11-29T22:56:46.513Z,8.80
2022-11-29T22:59:15.351Z,7.82
2022-11-29T23:01:44.207Z,7.07
2022-11-29T23:04:14.041Z,8.07
2022-11-29T23:06:44.535Z,4.68
2022-11-29T23:09:17.082Z,5.72
2022-11-29T23:11:46.659Z,5.82
2022-11-29T23:14:14.689Z,5.62
2022-11-29T23:16:43.011Z,6.57
2022-11-29T23:19:12.113Z,4.53
2022-11-29T23:21:41.367Z,5.40
2022-11-29T23:24:09.612Z,4.82
2022-11-29T23:26:43.614Z,3.95
2022-11-29T23:29:19.374Z,3.35
2022-11-29T23:31:49.166Z,2.95
2022-11-29T23:34:17.326Z,4.78
2022-11-29T23:36:49.775Z,3.55
2022-11-29T23:39:21.761Z,6.93
2022-11-29T23:41:49.775Z,7.82
2022-11-29T23:44:17.840Z,8.30
2022-11-29T23:46:46.301Z,8.43
2022-11-29T23:49:14.437Z,7.45
2022-11-29T23:51:43.221Z,8.70
2022-11-29T23:54:11.740Z,8.48
2022-11-29T23:56:39.857Z,7.18
2022-11-29T23:59:07.970Z,7.95
